createdAt,value
2022-10-18T00:02:22.405Z,22.00
2022-10-18T00:04:49.295Z,22.00
2022-10-18T00:07:16.074Z,21.90
2022-10-18T00:09:42.808Z,21.70
2022-10-18T00:12:09.649Z,21.40
2022-10-18T00:14:36.410Z,21.10
2022-10-18T00:17:03.209Z,21.00
2022-10-18T00:19:29.963Z,21.00
2022-10-18T00:21:56.944Z,22.20
2022-10-18T00:24:23.694Z,20.80
2022-10-18T00:26:50.493Z,20.70
2022-10-18T00:29:17.401Z,20.70
2022-10-18T00:31:44.662Z,20.50
2022-10-18T00:34:15.298Z,20.30
2022-10-18T00:36:43.365Z,20.20
2022-10-18T00:39:16.572Z,20.20
2022-10-18T00:41:43.529Z,20.30
2022-10-18T00:44:13.315Z,20.20
2022-10-18T00:46:46.702Z,20.30
2022-10-18T00:49:40.517Z,20.10
2022-10-18T00:52:12.025Z,20.00
2022-10-18T00:54:43.118Z,19.90
2022-10-18T00:57:11.032Z,19.80
2022-10-18T00:59:38.337Z,19.90
2022-10-18T01:02:06.550Z,19.90
2022-10-18T01:04:33.777Z,20.00
2022-10-18T01:07:23.631Z,20.00
2022-10-18T01:10:03.249Z,20.00
2022-10-18T01:12:33.058Z,19.70
2022-10-18T01:15:22.620Z,19.70
2022-10-18T01:18:01.036Z,19.60
2022-10-18T01:20:30.517Z,19.50
2022-10-18T01:23:07.595Z,19.40
2022-10-18T01:25:37.821Z,19.50
2022-10-18T01:28:29.707Z,19.70
2022-10-18T01:31:01.810Z,19.70
2022-10-18T01:33:37.593Z,19.70
2022-10-18T01:36:16.649Z,19.60
2022-10-18T01:38:44.857Z,19.60
2022-10-18T01:41:15.754Z,19.50
2022-10-18T01:43:45.284Z,19.60
2022-10-18T01:46:17.116Z,19.40
2022-10-18T01:48:44.421Z,19.10
2022-10-18T01:51:11.497Z,18.90
2022-10-18T01:53:38.340Z,18.90
2022-10-18T01:56:22.352Z,19.00
2022-10-18T01:59:02.402Z,19.00
2022-10-18T02:01:29.105Z,19.10
2022-10-18T02:04:04.005Z,19.00
2022-10-18T02:06:38.223Z,19.00
2022-10-18T02:09:12.461Z,18.90
2022-10-18T02:11:41.414Z,19.00
2022-10-18T02:14:11.546Z,19.00
2022-10-18T02:16:45.638Z,19.10
2022-10-18T02:19:33.576Z,19.10
2022-10-18T02:22:01.733Z,19.10
2022-10-18T02:24:35.551Z,19.20
2022-10-18T02:27:02.926Z,19.10
2022-10-18T02:29:30.721Z,19.00
2022-10-18T02:32:14.946Z,19.00
2022-10-18T02:34:47.816Z,18.90
2022-10-18T02:37:16.288Z,18.80
2022-10-18T02:39:47.152Z,18.90
2022-10-18T02:42:15.035Z,18.80
2022-10-18T02:44:42.092Z,18.80
2022-10-18T02:47:10.608Z,18.80
2022-10-18T02:49:37.337Z,18.80
2022-10-18T02:52:04.437Z,18.90
2022-10-18T02:54:31.147Z,18.90
2022-10-18T02:56:57.881Z,18.80
2022-10-18T02:59:24.610Z,18.80
2022-10-18T03:01:51.412Z,18.80
2022-10-18T03:04:18.240Z,18.90
2022-10-18T03:06:45.028Z,18.70
2022-10-18T03:09:11.785Z,18.70
2022-10-18T03:11:38.509Z,18.70
2022-10-18T03:14:05.512Z,18.70
2022-10-18T03:16:33.966Z,18.70
2022-10-18T03:19:01.021Z,18.70
2022-10-18T03:21:27.841Z,18.60
2022-10-18T03:23:55.015Z,18.60
2022-10-18T03:26:22.006Z,18.60
2022-10-18T03:28:49.119Z,18.60
2022-10-18T03:31:16.080Z,18.50
2022-10-18T03:33:42.817Z,18.40
2022-10-18T03:36:09.892Z,18.40
2022-10-18T03:38:36.621Z,18.40
2022-10-18T03:41:03.368Z,18.30
2022-10-18T03:43:30.272Z,18.40
2022-10-18T03:45:56.991Z,18.50
2022-10-18T03:48:24.269Z,18.60
2022-10-18T03:50:50.994Z,18.60
2022-10-18T03:53:17.706Z,18.70
2022-10-18T03:55:44.573Z,18.70
2022-10-18T03:58:11.429Z,18.80
2022-10-18T04:00:38.217Z,18.80
2022-10-18T04:03:04.989Z,18.90
2022-10-18T04:05:31.775Z,19.00
2022-10-18T04:07:58.744Z,19.00
2022-10-18T04:10:26.397Z,19.00
2022-10-18T04:12:53.296Z,19.10
2022-10-18T04:15:20.483Z,19.20
2022-10-18T04:17:47.493Z,19.30
2022-10-18T04:20:14.377Z,19.40
2022-10-18T04:22:41.157Z,19.40
2022-10-18T04:25:08.069Z,19.40
2022-10-18T04:27:35.452Z,19.50
2022-10-18T04:30:02.395Z,19.50
2022-10-18T04:32:29.455Z,19.50
2022-10-18T04:34:56.174Z,19.50
2022-10-18T04:37:23.061Z,19.60
2022-10-18T04:39:52.729Z,19.70
2022-10-18T04:42:21.447Z,19.70
2022-10-18T04:44:48.182Z,19.80
2022-10-18T04:47:15.268Z,19.80
2022-10-18T04:49:42.401Z,19.90
2022-10-18T04:52:09.874Z,19.90
2022-10-18T04:54:36.953Z,19.90
2022-10-18T04:57:04.167Z,19.90
2022-10-18T04:59:31.142Z,19.90
2022-10-18T05:01:57.952Z,19.80
2022-10-18T05:04:24.820Z,19.80
2022-10-18T05:06:51.533Z,19.80
2022-10-18T05:09:18.378Z,19.80
2022-10-18T05:11:45.111Z,19.90
2022-10-18T05:14:11.943Z,19.90
2022-10-18T05:16:38.659Z,19.90
2022-10-18T05:19:05.750Z,19.90
2022-10-18T05:21:33.302Z,20.00
2022-10-18T05:24:00.242Z,20.00
2022-10-18T05:26:27.175Z,20.10
2022-10-18T05:28:54.196Z,20.10
2022-10-18T05:31:21.495Z,20.10
2022-10-18T05:33:48.214Z,20.10
2022-10-18T05:36:15.600Z,20.10
2022-10-18T05:38:43.943Z,20.20
2022-10-18T05:41:11.579Z,20.20
2022-10-18T05:43:39.693Z,20.20
2022-10-18T05:46:13.753Z,20.20
2022-10-18T05:48:43.958Z,20.20
2022-10-18T05:51:11.448Z,20.30
2022-10-18T05:53:38.492Z,20.20
2022-10-18T05:56:07.020Z,20.20
2022-10-18T05:58:34.499Z,20.30
2022-10-18T06:01:02.518Z,20.30
2022-10-18T06:03:30.885Z,20.40
2022-10-18T06:06:06.606Z,20.50
2022-10-18T06:08:34.012Z,20.50
2022-10-18T06:11:06.822Z,20.50
2022-10-18T06:13:33.937Z,20.50
2022-10-18T06:16:00.849Z,20.60
2022-10-18T06:18:27.674Z,20.60
2022-10-18T06:20:58.946Z,20.60
2022-10-18T06:23:27.093Z,20.70
2022-10-18T06:25:54.221Z,20.70
2022-10-18T06:28:20.916Z,20.70
2022-10-18T06:30:47.640Z,20.70
2022-10-18T06:33:14.359Z,20.80
2022-10-18T06:35:41.126Z,20.80
2022-10-18T06:38:07.850Z,20.80
2022-10-18T06:40:37.904Z,20.90
2022-10-18T06:43:20.558Z,20.90
2022-10-18T06:45:48.543Z,20.90
2022-10-18T06:48:15.875Z,21.00
2022-10-18T06:50:42.990Z,21.10
2022-10-18T06:53:09.986Z,21.20
2022-10-18T06:55:36.703Z,21.10
2022-10-18T06:58:03.502Z,21.20
2022-10-18T07:00:30.221Z,21.30
2022-10-18T07:02:58.252Z,21.40
2022-10-18T07:05:25.434Z,21.40
2022-10-18T07:07:54.344Z,21.40
2022-10-18T07:10:24.426Z,21.50
2022-10-18T07:12:53.571Z,21.50
2022-10-18T07:15:26.256Z,21.60
2022-10-18T07:17:53.055Z,21.60
2022-10-18T07:20:19.830Z,21.50
2022-10-18T07:22:46.537Z,21.60
2022-10-18T07:25:13.387Z,21.60
2022-10-18T07:27:42.730Z,21.60
2022-10-18T07:30:10.989Z,21.70
2022-10-18T07:32:37.773Z,21.70
2022-10-18T07:35:04.796Z,21.60
2022-10-18T07:37:32.063Z,21.80
2022-10-18T07:39:59.064Z,21.80
2022-10-18T07:42:26.234Z,21.80
2022-10-18T07:44:53.009Z,21.80
2022-10-18T07:47:19.828Z,21.90
2022-10-18T07:49:46.554Z,22.10
2022-10-18T07:52:13.256Z,22.20
2022-10-18T07:54:40.110Z,22.30
2022-10-18T07:57:06.899Z,22.40
2022-10-18T07:59:33.669Z,22.40
2022-10-18T08:02:00.504Z,22.40
2022-10-18T08:04:27.266Z,22.40
2022-10-18T08:06:53.994Z,22.40
2022-10-18T08:09:20.707Z,22.60
2022-10-18T08:11:47.525Z,22.60
2022-10-18T08:14:15.194Z,22.70
2022-10-18T08:16:41.981Z,22.80
2022-10-18T08:19:08.755Z,22.90
2022-10-18T08:21:35.637Z,22.90
2022-10-18T08:24:02.364Z,23.00
2022-10-18T08:26:29.131Z,23.00
2022-10-18T08:29:10.235Z,23.00
2022-10-18T08:31:42.649Z,22.90
2022-10-18T08:34:09.360Z,22.80
2022-10-18T08:36:36.961Z,23.00
2022-10-18T08:39:03.837Z,23.20
2022-10-18T08:41:30.585Z,23.40
2022-10-18T08:44:32.505Z,23.40
2022-10-18T08:47:11.961Z,23.50
2022-10-18T08:49:50.423Z,23.60
2022-10-18T08:52:49.826Z,23.70
2022-10-18T08:55:24.977Z,23.80
2022-10-18T08:57:52.103Z,24.00
2022-10-18T09:00:21.558Z,24.00
2022-10-18T09:03:17.012Z,23.90
2022-10-18T09:05:54.941Z,23.60
2022-10-18T09:08:45.791Z,23.40
2022-10-18T09:11:30.043Z,23.20
2022-10-18T09:14:29.434Z,23.20
2022-10-18T09:17:46.930Z,23.20
2022-10-18T09:20:32.304Z,23.30
2022-10-18T09:23:20.206Z,23.40
2022-10-18T09:26:03.728Z,23.40
2022-10-18T09:28:45.929Z,23.40
2022-10-18T09:31:21.998Z,23.40
2022-10-18T09:34:01.920Z,23.40
2022-10-18T09:36:36.918Z,23.40
2022-10-18T09:39:13.571Z,23.50
2022-10-18T09:41:59.000Z,23.60
2022-10-18T09:44:55.637Z,23.50
2022-10-18T09:47:28.565Z,23.50
2022-10-18T09:50:00.290Z,23.70
2022-10-18T09:52:37.141Z,23.90
2022-10-18T09:55:15.618Z,24.00
2022-10-18T09:57:48.753Z,23.90
2022-10-18T10:00:20.682Z,23.80
2022-10-18T10:02:47.520Z,23.90
2022-10-18T10:05:15.397Z,24.10
2022-10-18T10:07:47.717Z,24.20
2022-10-18T10:10:22.226Z,24.40
2022-10-18T10:13:01.858Z,24.40
2022-10-18T10:15:33.207Z,24.40
2022-10-18T10:18:16.336Z,24.50
2022-10-18T10:20:47.296Z,24.50
2022-10-18T10:23:29.189Z,24.50
2022-10-18T10:26:01.884Z,24.50
2022-10-18T10:28:31.459Z,24.40
2022-10-18T10:31:18.127Z,24.40
2022-10-18T10:33:47.511Z,24.50
2022-10-18T10:36:20.519Z,24.50
2022-10-18T10:39:05.628Z,24.40
2022-10-18T10:44:13.722Z,24.40
2022-10-18T10:46:40.502Z,24.40
2022-10-18T10:49:38.508Z,24.30
2022-10-18T10:52:09.209Z,24.30
2022-10-18T10:54:52.073Z,24.10
2022-10-18T10:57:25.967Z,24.10
2022-10-18T10:59:59.623Z,24.00
2022-10-18T11:02:33.821Z,24.10
2022-10-18T11:05:24.790Z,24.00
2022-10-18T11:07:58.097Z,24.00
2022-10-18T11:10:29.357Z,23.90
2022-10-18T11:13:11.705Z,24.00
2022-10-18T11:15:53.990Z,24.00
2022-10-18T11:18:47.760Z,24.00
2022-10-18T11:21:23.517Z,24.10
2022-10-18T11:23:50.682Z,24.10
2022-10-18T11:26:29.328Z,24.00
2022-10-18T11:28:56.091Z,24.10
2022-10-18T11:31:53.857Z,24.10
2022-10-18T11:34:36.259Z,24.00
2022-10-18T11:37:39.660Z,24.00
2022-10-18T11:40:28.462Z,24.00
2022-10-18T11:43:16.890Z,24.10
2022-10-18T11:46:02.474Z,24.10
2022-10-18T11:48:45.122Z,24.00
2022-10-18T11:51:38.772Z,24.00
2022-10-18T11:54:31.707Z,24.00
2022-10-18T11:57:18.658Z,24.00
2022-10-18T12:00:04.196Z,24.00
2022-10-18T12:02:36.891Z,24.00
2022-10-18T12:08:25.791Z,24.00
2022-10-18T12:11:04.987Z,23.90
2022-10-18T12:13:46.338Z,24.00
2022-10-18T12:16:13.913Z,24.00
2022-10-18T12:19:07.072Z,24.00
2022-10-18T12:21:34.549Z,23.90
2022-10-18T12:24:18.343Z,23.80
2022-10-18T12:26:48.541Z,23.90
2022-10-18T12:29:50.774Z,23.90
2022-10-18T12:32:26.869Z,23.90
2022-10-18T12:35:01.843Z,23.90
2022-10-18T12:37:57.797Z,24.00
2022-10-18T12:40:38.064Z,24.00
2022-10-18T12:43:10.741Z,24.10
2022-10-18T12:45:55.928Z,24.20
2022-10-18T12:48:45.409Z,24.20
2022-10-18T12:51:20.856Z,24.20
2022-10-18T12:54:07.806Z,24.20
2022-10-18T12:56:38.262Z,24.20
2022-10-18T12:59:14.242Z,24.20
2022-10-18T13:01:53.323Z,24.20
2022-10-18T13:04:29.629Z,24.20
2022-10-18T13:07:05.243Z,24.20
2022-10-18T13:09:53.677Z,24.20
2022-10-18T13:12:20.356Z,24.20
2022-10-18T13:15:27.726Z,24.10
2022-10-18T13:18:18.913Z,24.20
2022-10-18T13:21:12.743Z,24.10
2022-10-18T13:24:09.880Z,24.20
2022-10-18T13:26:59.072Z,24.10
2022-10-18T13:29:51.206Z,24.20
2022-10-18T13:32:32.285Z,24.20
2022-10-18T13:34:59.477Z,24.20
2022-10-18T13:37:29.066Z,24.30
2022-10-18T13:40:25.154Z,24.30
2022-10-18T13:42:51.942Z,24.30
2022-10-18T13:45:31.419Z,24.40
2022-10-18T13:48:29.802Z,24.40
2022-10-18T13:51:18.638Z,24.30
2022-10-18T13:54:16.609Z,24.30
2022-10-18T13:57:06.601Z,24.40
2022-10-18T14:02:51.807Z,24.30
2022-10-18T14:05:44.581Z,24.40
2022-10-18T14:08:17.493Z,24.40
2022-10-18T14:11:04.964Z,24.30
2022-10-18T14:13:41.988Z,24.30
2022-10-18T14:16:32.730Z,24.20
2022-10-18T14:19:17.466Z,24.30
2022-10-18T14:21:52.233Z,24.20
2022-10-18T14:24:25.078Z,24.10
2022-10-18T14:27:18.358Z,24.10
2022-10-18T14:29:46.000Z,24.10
2022-10-18T14:32:30.156Z,24.20
2022-10-18T14:35:20.618Z,24.30
2022-10-18T14:37:45.770Z,24.30
2022-10-18T14:40:45.080Z,24.30
2022-10-18T14:43:19.189Z,24.30
2022-10-18T14:45:46.035Z,24.30
2022-10-18T14:48:20.762Z,24.30
2022-10-18T14:50:59.119Z,24.30
2022-10-18T14:53:32.471Z,24.30
2022-10-18T14:56:00.895Z,24.40
2022-10-18T14:58:28.125Z,24.30
2022-10-18T15:00:55.124Z,24.30
2022-10-18T15:03:23.021Z,24.20
2022-10-18T15:06:08.482Z,24.30
2022-10-18T15:08:42.659Z,24.40
2022-10-18T15:11:14.324Z,24.40
2022-10-18T15:13:55.212Z,24.30
2022-10-18T15:16:26.100Z,24.40
2022-10-18T15:19:28.693Z,24.30
2022-10-18T15:22:19.696Z,24.20
2022-10-18T15:24:43.882Z,24.20
2022-10-18T15:27:25.543Z,24.30
2022-10-18T15:29:52.802Z,24.30
2022-10-18T15:32:29.809Z,24.30
2022-10-18T15:35:09.099Z,24.30
2022-10-18T15:37:42.585Z,24.20
2022-10-18T15:40:22.966Z,24.20
2022-10-18T15:42:51.149Z,24.20
2022-10-18T15:45:23.703Z,24.10
2022-10-18T15:48:16.572Z,24.00
2022-10-18T15:50:52.372Z,23.90
2022-10-18T15:53:28.165Z,23.90
2022-10-18T15:56:25.090Z,23.80
2022-10-18T15:58:52.330Z,23.70
2022-10-18T16:01:25.197Z,23.70
2022-10-18T16:03:52.394Z,23.60
2022-10-18T16:06:19.333Z,23.60
2022-10-18T16:08:51.100Z,23.60
2022-10-18T16:11:23.859Z,23.50
2022-10-18T16:13:53.046Z,23.40
2022-10-18T16:16:28.125Z,23.30
2022-10-18T16:18:55.363Z,23.20
2022-10-18T16:21:34.133Z,23.10
2022-10-18T16:24:01.454Z,23.00
2022-10-18T16:26:28.945Z,22.80
2022-10-18T16:28:57.292Z,22.80
2022-10-18T16:31:27.101Z,22.70
2022-10-18T16:33:55.188Z,22.50
2022-10-18T16:36:29.030Z,22.40
2022-10-18T16:38:56.593Z,22.30
2022-10-18T16:41:23.774Z,22.30
2022-10-18T16:43:51.241Z,22.10
2022-10-18T16:46:28.994Z,21.80
2022-10-18T16:48:56.806Z,21.80
2022-10-18T16:51:23.583Z,21.80
2022-10-18T16:53:50.410Z,21.70
2022-10-18T16:56:19.764Z,21.50
2022-10-18T16:58:46.944Z,21.50
2022-10-18T17:01:16.406Z,21.50
2022-10-18T17:03:44.028Z,21.40
2022-10-18T17:06:32.122Z,21.40
2022-10-18T17:08:59.737Z,21.30
2022-10-18T17:11:28.229Z,21.20
2022-10-18T17:13:55.416Z,21.20
2022-10-18T17:18:57.213Z,20.90
2022-10-18T17:21:25.653Z,20.70
2022-10-18T17:23:52.438Z,20.70
2022-10-18T17:26:30.151Z,20.50
2022-10-18T17:29:00.664Z,20.50
2022-10-18T17:31:29.062Z,20.40
2022-10-18T17:33:55.812Z,20.40
2022-10-18T17:36:23.008Z,20.30
2022-10-18T17:38:55.910Z,20.20
2022-10-18T17:41:22.922Z,20.20
2022-10-18T17:43:49.941Z,20.20
2022-10-18T17:46:17.815Z,20.10
2022-10-18T17:48:45.247Z,20.10
2022-10-18T17:51:14.957Z,20.10
2022-10-18T17:53:41.933Z,20.10
2022-10-18T17:56:09.928Z,19.90
2022-10-18T17:58:36.732Z,19.80
2022-10-18T18:01:10.526Z,19.80
2022-10-18T18:03:37.581Z,19.90
2022-10-18T18:06:19.598Z,19.80
2022-10-18T18:08:47.466Z,19.80
2022-10-18T18:11:14.557Z,19.70
2022-10-18T18:13:41.978Z,19.70
2022-10-18T18:16:11.680Z,21.20
2022-10-18T18:18:38.524Z,19.70
2022-10-18T18:21:05.374Z,19.70
2022-10-18T18:23:32.226Z,19.70
2022-10-18T18:25:59.891Z,19.60
2022-10-18T18:28:26.757Z,19.60
2022-10-18T18:30:53.601Z,19.40
2022-10-18T18:33:20.480Z,19.20
2022-10-18T18:35:59.340Z,19.30
2022-10-18T18:38:26.631Z,19.20
2022-10-18T18:41:08.614Z,19.90
2022-10-18T18:43:36.103Z,19.10
2022-10-18T18:46:03.455Z,19.20
2022-10-18T18:48:32.337Z,19.10
2022-10-18T18:50:59.193Z,19.10
2022-10-18T18:53:29.376Z,19.00
2022-10-18T18:56:08.463Z,18.90
2022-10-18T18:58:36.962Z,19.00
2022-10-18T19:01:17.292Z,18.90
2022-10-18T19:03:45.418Z,18.90
2022-10-18T19:06:15.755Z,18.90
2022-10-18T19:08:44.825Z,18.80
2022-10-18T19:11:18.006Z,18.80
2022-10-18T19:13:45.496Z,18.80
2022-10-18T19:16:28.517Z,18.80
2022-10-18T19:19:04.880Z,18.70
2022-10-18T19:21:34.874Z,18.70
2022-10-18T19:24:02.559Z,18.60
2022-10-18T19:26:45.177Z,18.50
2022-10-18T19:29:21.226Z,18.50
2022-10-18T19:31:48.740Z,18.60
2022-10-18T19:34:16.877Z,18.50
2022-10-18T19:36:45.846Z,18.50
2022-10-18T19:39:19.105Z,18.50
2022-10-18T19:41:47.616Z,18.40
2022-10-18T19:44:14.559Z,18.50
2022-10-18T19:46:41.391Z,18.50
2022-10-18T19:49:08.322Z,18.40
2022-10-18T19:51:35.339Z,18.30
2022-10-18T19:54:02.346Z,18.30
2022-10-18T19:56:29.650Z,18.10
2022-10-18T19:58:57.498Z,18.00
2022-10-18T20:01:27.433Z,18.00
2022-10-18T20:03:54.695Z,18.00
2022-10-18T20:06:22.213Z,18.00
2022-10-18T20:08:49.268Z,17.90
2022-10-18T20:11:21.801Z,18.00
2022-10-18T20:13:49.411Z,18.10
2022-10-18T20:16:17.890Z,18.20
2022-10-18T20:18:44.935Z,18.10
2022-10-18T20:21:13.668Z,18.00
2022-10-18T20:23:42.188Z,17.80
2022-10-18T20:26:20.421Z,17.80
2022-10-18T20:28:49.464Z,17.90
2022-10-18T20:31:19.251Z,17.90
2022-10-18T20:33:47.422Z,18.00
2022-10-18T20:36:16.505Z,17.90
2022-10-18T20:38:45.434Z,17.80
2022-10-18T20:41:13.249Z,17.80
2022-10-18T20:43:40.869Z,17.80
2022-10-18T20:46:08.529Z,17.90
2022-10-18T20:48:36.288Z,18.00
2022-10-18T20:51:07.037Z,17.90
2022-10-18T20:53:37.653Z,17.70
2022-10-18T20:56:05.322Z,17.80
2022-10-18T20:58:35.828Z,17.70
2022-10-18T21:01:08.344Z,17.60
2022-10-18T21:03:40.031Z,17.60
2022-10-18T21:06:15.046Z,17.70
2022-10-18T21:08:45.916Z,17.70
2022-10-18T21:11:13.546Z,17.60
2022-10-18T21:13:43.253Z,17.60
2022-10-18T21:16:09.981Z,17.60
2022-10-18T21:18:37.354Z,17.40
2022-10-18T21:23:40.630Z,17.40
2022-10-18T21:26:08.132Z,16.50
2022-10-18T21:28:35.001Z,17.50
2022-10-18T21:31:23.037Z,17.40
2022-10-18T21:34:00.157Z,17.50
2022-10-18T21:36:30.305Z,17.30
2022-10-18T21:38:57.364Z,17.20
2022-10-18T21:41:24.233Z,17.20
2022-10-18T21:43:53.593Z,17.10
2022-10-18T21:46:22.326Z,17.20
2022-10-18T21:48:51.536Z,17.10
2022-10-18T21:51:20.995Z,17.10
2022-10-18T21:53:49.870Z,17.00
2022-10-18T21:56:22.369Z,17.10
2022-10-18T21:58:49.831Z,17.20
2022-10-18T22:01:21.237Z,17.20
2022-10-18T22:03:49.889Z,17.10
2022-10-18T22:06:17.741Z,17.20
2022-10-18T22:08:45.805Z,17.30
2022-10-18T22:11:12.982Z,17.20
2022-10-18T22:13:40.800Z,17.00
2022-10-18T22:16:11.265Z,16.90
2022-10-18T22:18:38.072Z,16.90
2022-10-18T22:21:07.935Z,17.00
2022-10-18T22:23:36.396Z,17.00
2022-10-18T22:26:07.993Z,17.00
2022-10-18T22:28:36.330Z,17.00
2022-10-18T22:31:03.239Z,16.90
2022-10-18T22:33:30.397Z,16.70
2022-10-18T22:35:57.250Z,16.60
2022-10-18T22:38:24.166Z,16.50
2022-10-18T22:40:51.755Z,16.60
2022-10-18T22:43:18.537Z,16.70
2022-10-18T22:45:45.234Z,16.70
2022-10-18T22:48:12.010Z,16.80
2022-10-18T22:50:38.706Z,16.60
2022-10-18T22:53:05.440Z,16.80
2022-10-18T22:55:32.140Z,16.70
2022-10-18T22:57:58.861Z,16.70
2022-10-18T23:00:25.829Z,16.50
2022-10-18T23:02:52.617Z,16.60
2022-10-18T23:05:19.333Z,16.50
2022-10-18T23:07:49.586Z,16.50
2022-10-18T23:10:16.395Z,16.50
2022-10-18T23:12:44.051Z,16.50
2022-10-18T23:15:11.065Z,16.40
2022-10-18T23:17:37.854Z,16.60
2022-10-18T23:20:05.743Z,16.50
2022-10-18T23:22:32.822Z,16.50
2022-10-18T23:24:59.885Z,16.50
2022-10-18T23:27:28.052Z,16.40
2022-10-18T23:29:54.814Z,16.30
2022-10-18T23:32:21.693Z,16.30
2022-10-18T23:34:48.429Z,16.20
2022-10-18T23:37:15.193Z,16.10
2022-10-18T23:39:41.897Z,16.10
2022-10-18T23:42:08.615Z,16.20
2022-10-18T23:44:35.453Z,16.30
2022-10-18T23:47:02.297Z,16.20
2022-10-18T23:49:29.129Z,16.30
2022-10-18T23:51:55.960Z,16.40
2022-10-18T23:54:22.927Z,16.40
2022-10-18T23:56:49.747Z,16.50
2022-10-18T23:59:16.551Z,16.30
